Time;durP1;ratioP1;P1;durP2;ratioP2;P2;SDS_P1;SDS_P2;PMS_P1;PMS_P2;Temp;Humidity;BMP_temperature;BMP_pressure;BME280_temperature;BME280_humidity;BME280_pressure;Samples;Min_cycle;Max_cycle;Signal;HPM_P1;HPM_P2
2022/01/04 00:01:04;;;;;;;14.60;2.50;;;;;;;6.21;100.00;99364.16;5058149;28;20028;-51
2022/01/04 00:03:29;;;;;;;5.57;1.23;;;;;;;6.20;100.00;99367.81;5062814;28;20025;-50
2022/01/04 00:05:54;;;;;;;9.48;1.25;;;;;;;6.13;100.00;99353.78;5061135;28;20393;-49
2022/01/04 00:08:20;;;;;;;8.65;1.02;;;;;;;6.18;100.00;99354.03;5060109;28;20235;-50
2022/01/04 00:10:46;;;;;;;9.88;2.13;;;;;;;6.14;100.00;99350.13;5061654;28;20029;-50
2022/01/04 00:13:24;;;;;;;2.65;1.50;;;;;;;6.06;100.00;99345.81;5064181;28;20035;-51
2022/01/04 00:15:53;;;;;;;5.15;1.70;;;;;;;6.06;100.00;99343.19;5057881;28;20485;-50
2022/01/04 00:18:19;;;;;;;4.70;0.63;;;;;;;6.00;100.00;99333.44;5064395;28;20043;-50
2022/01/04 00:20:46;;;;;;;8.43;0.95;;;;;;;6.00;100.00;99324.72;5061249;28;20056;-52
2022/01/04 00:23:11;;;;;;;5.78;1.02;;;;;;;5.98;100.00;99322.28;5063729;28;20074;-50
2022/01/04 00:25:37;;;;;;;6.22;0.88;;;;;;;5.96;100.00;99318.19;5064325;28;20028;-52
2022/01/04 00:28:07;;;;;;;4.28;0.32;;;;;;;5.88;100.00;99313.84;5062858;28;20147;-51
2022/01/04 00:30:33;;;;;;;3.40;0.13;;;;;;;5.82;100.00;99304.91;5051274;28;20119;-50
2022/01/04 00:32:58;;;;;;;3.13;0.68;;;;;;;5.81;100.00;99300.66;5063836;28;20461;-51
2022/01/04 00:35:23;;;;;;;2.30;0.47;;;;;;;5.81;100.00;99305.09;5064759;28;20025;-52
2022/01/04 00:37:49;;;;;;;4.28;0.93;;;;;;;5.79;100.00;99293.97;5063448;28;20047;-51
2022/01/04 00:40:14;;;;;;;5.28;0.88;;;;;;;5.75;100.00;99295.31;5064979;28;20036;-50
2022/01/04 00:42:39;;;;;;;5.25;1.40;;;;;;;5.73;100.00;99295.53;5063161;28;20082;-53
2022/01/04 00:45:05;;;;;;;6.22;1.30;;;;;;;5.73;100.00;99294.69;5062695;28;20036;-51
2022/01/04 00:49:09;;;;;;;1.73;0.28;;;;;;;5.70;100.00;99293.25;5062874;28;20036;-51
2022/01/04 00:50:30;;;;;;;1.63;0.68;;;;;;;5.72;100.00;99286.00;5059071;28;20036;-52
2022/01/04 00:52:57;;;;;;;6.90;1.75;;;;;;;5.71;100.00;99283.56;5063837;28;20119;-50
2022/01/04 00:55:23;;;;;;;7.18;3.92;;;;;;;5.71;100.00;99275.69;5063227;28;20036;-49
2022/01/04 00:57:48;;;;;;;2.90;0.70;;;;;;;5.67;100.00;99277.84;5062724;28;20036;-51
2022/01/04 01:00:16;;;;;;;4.65;1.30;;;;;;;5.68;100.00;99276.88;5058512;28;20028;-50
2022/01/04 01:02:42;;;;;;;5.65;1.75;;;;;;;5.67;100.00;99275.22;5062542;28;20037;-52
2022/01/04 01:05:08;;;;;;;2.75;1.10;;;;;;;5.68;100.00;99276.88;5061617;28;20033;-49
2022/01/04 01:07:34;;;;;;;8.65;0.73;;;;;;;5.71;100.00;99265.97;5064260;28;20029;-54
2022/01/04 01:10:49;;;;;;;8.45;1.13;;;;;;;5.67;100.00;99255.00;5062248;28;20032;-50
2022/01/04 01:12:46;;;;;;;7.53;1.67;;;;;;;5.63;100.00;99260.84;5052836;28;20052;-53
2022/01/04 01:15:12;;;;;;;4.53;0.50;;;;;;;5.60;100.00;99258.56;5061903;28;20190;-53
2022/01/04 01:17:38;;;;;;;5.78;0.85;;;;;;;5.58;100.00;99252.69;5063766;28;20036;-54
2022/01/04 01:20:07;;;;;;;13.70;2.60;;;;;;;5.56;100.00;99250.25;5058811;28;20043;-51
2022/01/04 01:22:33;;;;;;;1.95;0.82;;;;;;;5.50;100.00;99243.13;5062860;28;20063;-48
2022/01/04 01:24:59;;;;;;;5.72;0.52;;;;;;;5.50;100.00;99234.41;5063960;28;20107;-48
2022/01/04 01:27:24;;;;;;;2.63;0.45;;;;;;;5.49;100.00;99230.16;5061042;28;20811;-51
2022/01/04 01:29:49;;;;;;;5.63;0.88;;;;;;;5.51;100.00;99228.16;5061223;28;20060;-49
2022/01/04 01:32:15;;;;;;;11.10;2.95;;;;;;;5.58;100.00;99221.97;5062908;28;20036;-49
2022/01/04 01:34:42;;;;;;;2.72;1.10;;;;;;;5.64;100.00;99201.97;5057857;28;20480;-50
2022/01/04 01:37:08;;;;;;;8.43;1.52;;;;;;;5.67;100.00;99212.91;5062730;28;20532;-47
2022/01/04 01:39:33;;;;;;;5.25;0.38;;;;;;;5.71;100.00;99208.09;5061979;28;20024;-51
2022/01/04 01:41:58;;;;;;;5.80;1.40;;;;;;;5.77;100.00;99204.69;5062530;28;20105;-49
2022/01/04 01:44:24;;;;;;;1.13;0.60;;;;;;;5.82;100.00;99204.94;5059679;28;20114;-53
2022/01/04 01:46:49;;;;;;;7.80;1.90;;;;;;;5.86;100.00;99206.19;5055486;28;20156;-51
2022/01/04 01:49:15;;;;;;;7.57;1.75;;;;;;;5.90;100.00;99210.06;5058506;28;20037;-50
2022/01/04 01:51:40;;;;;;;7.85;1.45;;;;;;;5.96;100.00;99205.06;5060986;28;20029;-53
2022/01/04 01:54:06;;;;;;;8.07;0.90;;;;;;;5.98;100.00;99203.88;5059491;28;20044;-50
2022/01/04 01:56:31;;;;;;;8.98;1.35;;;;;;;5.98;100.00;99201.25;5061237;28;20039;-51
2022/01/04 01:58:57;;;;;;;4.25;1.35;;;;;;;6.01;100.00;99200.03;5057914;28;20025;-52
2022/01/04 02:01:23;;;;;;;15.65;1.67;;;;;;;6.00;100.00;99193.16;5058634;28;20036;-54
2022/01/04 02:03:48;;;;;;;3.08;0.55;;;;;;;6.02;100.00;99191.16;5061817;28;20032;-54
2022/01/04 02:06:14;;;;;;;7.20;2.22;;;;;;;6.05;100.00;99185.50;5058595;28;20025;-49
2022/01/04 02:08:40;;;;;;;4.05;0.32;;;;;;;6.05;100.00;99185.50;5060334;28;20029;-50
2022/01/04 02:11:05;;;;;;;5.30;1.77;;;;;;;6.06;100.00;99180.03;5060093;28;20040;-54
2022/01/04 02:13:31;;;;;;;13.88;1.88;;;;;;;6.07;100.00;99175.59;5057425;28;20060;-53
2022/01/04 02:15:58;;;;;;;5.05;2.35;;;;;;;6.07;100.00;99173.78;5057381;28;20036;-53
2022/01/04 02:18:23;;;;;;;2.20;0.68;;;;;;;6.03;100.00;99169.91;5056877;28;20036;-53
2022/01/04 02:20:49;;;;;;;2.10;0.57;;;;;;;5.98;100.00;99176.75;5054132;28;20581;-53
2022/01/04 02:23:15;;;;;;;13.23;1.65;;;;;;;5.88;100.00;99166.53;5056656;28;20461;-54
2022/01/04 02:25:40;;;;;;;5.60;0.70;;;;;;;5.78;100.00;99168.69;5059516;28;20107;-54
2022/01/04 02:28:06;;;;;;;3.13;0.60;;;;;;;5.75;100.00;99164.63;5063383;28;20050;-52
2022/01/04 02:30:31;;;;;;;4.32;0.82;;;;;;;5.78;100.00;99155.53;5051906;28;20036;-49
2022/01/04 02:32:59;;;;;;;7.90;1.38;;;;;;;5.78;100.00;99145.84;5051337;28;20054;-51
2022/01/04 02:35:30;;;;;;;5.30;0.77;;;;;;;5.77;100.00;99144.22;5061081;28;20028;-53
2022/01/04 02:37:58;;;;;;;3.95;0.40;;;;;;;5.78;100.00;99161.63;5059258;28;20454;-53
2022/01/04 02:40:24;;;;;;;5.20;1.55;;;;;;;5.76;100.00;99157.56;5049394;28;20055;-48
2022/01/04 02:42:50;;;;;;;4.20;0.77;;;;;;;5.73;100.00;99147.41;5052279;28;20060;-52
2022/01/04 02:45:16;;;;;;;6.75;1.48;;;;;;;5.69;100.00;99150.44;5059372;28;20060;-51
2022/01/04 02:47:41;;;;;;;1.65;0.40;;;;;;;5.67;100.00;99146.38;5064454;28;20043;-55
2022/01/04 02:50:08;;;;;;;3.30;1.20;;;;;;;5.67;100.00;99154.25;5056951;28;20025;-49
2022/01/04 02:52:34;;;;;;;3.50;1.20;;;;;;;5.67;100.00;99146.38;5054489;28;20036;-53
2022/01/04 02:55:01;;;;;;;3.58;0.60;;;;;;;5.65;100.00;99148.38;5056167;28;20036;-51
2022/01/04 02:57:26;;;;;;;3.40;0.88;;;;;;;5.63;100.00;99147.75;5059341;28;20536;-53
2022/01/04 02:59:52;;;;;;;3.10;0.45;;;;;;;5.61;100.00;99145.31;5056021;28;20071;-49
2022/01/04 03:02:17;;;;;;;1.90;0.25;;;;;;;5.63;100.00;99137.25;5060073;28;20044;-50
2022/01/04 03:04:42;;;;;;;2.60;0.50;;;;;;;5.62;100.00;99140.88;5061891;28;20056;-48
2022/01/04 03:07:08;;;;;;;4.40;0.68;;;;;;;5.55;100.00;99137.38;5065334;28;20037;-49
2022/01/04 03:09:33;;;;;;;2.00;0.75;;;;;;;5.51;100.00;99136.13;5057949;28;20041;-54
2022/01/04 03:11:58;;;;;;;1.52;0.45;;;;;;;5.44;100.00;99129.00;5053681;28;20028;-51
2022/01/04 03:14:24;;;;;;;7.70;2.63;;;;;;;5.39;100.00;99126.13;5060456;28;20529;-48
2022/01/04 03:16:49;;;;;;;12.65;1.83;;;;;;;5.36;100.00;99125.72;5064584;28;20071;-49
2022/01/04 03:19:14;;;;;;;3.45;0.15;;;;;;;5.31;100.00;99128.91;5062279;28;20480;-53
2022/01/04 03:21:42;;;;;;;3.45;0.70;;;;;;;5.31;100.00;99131.53;5054873;28;20039;-53
2022/01/04 03:24:09;;;;;;;4.88;0.35;;;;;;;5.33;100.00;99123.47;5063503;28;20048;-53
2022/01/04 03:26:35;;;;;;;5.70;1.50;;;;;;;5.28;100.00;99112.69;5063442;28;20068;-51
2022/01/04 03:29:02;;;;;;;3.35;0.85;;;;;;;5.28;100.00;99108.25;5063651;28;20457;-53
2022/01/04 03:31:28;;;;;;;3.15;0.40;;;;;;;5.25;100.00;99119.16;5052592;28;20374;-51
2022/01/04 03:33:54;;;;;;;3.30;0.98;;;;;;;5.25;100.00;99108.63;5062625;28;20119;-50
2022/01/04 03:36:21;;;;;;;4.93;1.67;;;;;;;5.26;100.00;99099.75;5051899;28;20120;-52
2022/01/04 03:38:48;;;;;;;3.55;0.75;;;;;;;5.33;100.00;99115.56;5061726;28;20478;-48
2022/01/04 03:41:18;;;;;;;6.70;0.60;;;;;;;5.34;100.00;99110.13;5055303;28;20040;-50
2022/01/04 03:43:43;;;;;;;3.33;0.35;;;;;;;5.33;100.00;99119.00;5062564;28;20052;-53
2022/01/04 03:46:09;;;;;;;5.35;0.10;;;;;;;5.32;100.00;99119.19;5055674;28;20129;-50
2022/01/04 03:48:35;;;;;;;5.32;0.52;;;;;;;5.32;100.00;99124.44;5062961;28;20025;-51
2022/01/04 03:51:02;;;;;;;7.18;0.93;;;;;;;5.32;100.00;99132.31;5051924;28;20035;-53
2022/01/04 03:53:28;;;;;;;2.85;0.40;;;;;;;5.36;100.00;99128.34;5056420;28;20037;-53
2022/01/04 03:55:53;;;;;;;4.30;1.58;;;;;;;5.41;100.00;99121.50;5057768;28;20393;-52
2022/01/04 03:58:19;;;;;;;4.70;1.25;;;;;;;5.44;100.00;99115.03;5051652;28;20119;-51
2022/01/04 04:00:44;;;;;;;4.68;0.28;;;;;;;5.45;100.00;99114.06;5053843;28;20524;-50
2022/01/04 04:03:09;;;;;;;3.17;0.80;;;;;;;5.44;100.00;99110.59;5052664;28;20044;-49
2022/01/04 04:05:35;;;;;;;1.75;0.60;;;;;;;5.38;100.00;99108.75;5063207;28;20039;-51
2022/01/04 04:08:00;;;;;;;5.65;1.48;;;;;;;5.33;100.00;99100.63;5064221;28;20028;-51
2022/01/04 04:10:26;;;;;;;9.88;0.63;;;;;;;5.33;100.00;99100.63;5061981;28;20132;-52
2022/01/04 04:12:51;;;;;;;4.85;0.20;;;;;;;5.37;100.00;99095.78;5053835;28;20032;-48
2022/01/04 04:15:16;;;;;;;2.47;0.57;;;;;;;5.47;100.00;99083.13;5046461;28;20037;-52
2022/01/04 04:17:45;;;;;;;2.83;0.20;;;;;;;5.38;100.00;99082.44;5057787;28;20029;-51
2022/01/04 04:20:10;;;;;;;0.38;0.20;;;;;;;5.28;100.00;99081.97;5049182;28;20040;-50
2022/01/04 04:22:36;;;;;;;3.80;0.20;;;;;;;5.21;100.00;99088.97;5054138;28;20037;-50
2022/01/04 04:25:01;;;;;;;0.88;0.08;;;;;;;5.19;100.00;99083.13;5055543;28;20105;-52
2022/01/04 04:27:27;;;;;;;0.90;0.20;;;;;;;5.14;100.00;99065.31;5061651;28;20103;-48
2022/01/04 04:29:52;;;;;;;3.70;0.70;;;;;;;5.09;100.00;99070.31;5052351;28;20040;-51
2022/01/04 04:32:17;;;;;;;1.10;0.20;;;;;;;5.04;100.00;99075.31;5057043;28;20116;-47
2022/01/04 04:34:42;;;;;;;2.65;0.45;;;;;;;5.01;100.00;99076.50;5051441;28;20124;-52
2022/01/04 04:37:08;;;;;;;1.52;0.57;;;;;;;4.99;100.00;99075.06;5061651;28;20082;-54
2022/01/04 04:39:33;;;;;;;3.00;0.63;;;;;;;4.98;100.00;99089.19;5055385;28;20032;-53
2022/01/04 04:41:59;;;;;;;5.05;0.10;;;;;;;4.97;100.00;99092.84;5063594;28;20032;-50
2022/01/04 04:44:24;;;;;;;7.07;0.82;;;;;;;5.01;100.00;99083.59;5057614;28;20440;-51
2022/01/04 04:46:49;;;;;;;4.18;1.20;;;;;;;5.05;100.00;99087.44;5068022;28;20032;-50
2022/01/04 04:49:15;;;;;;;6.63;0.32;;;;;;;5.11;100.00;99086.72;5058315;28;20040;-51
2022/01/04 04:51:41;;;;;;;2.13;0.20;;;;;;;5.14;100.00;99085.53;5060991;28;20498;-50
2022/01/04 04:54:06;;;;;;;4.70;0.20;;;;;;;5.18;100.00;99081.50;5050206;28;20062;-49
2022/01/04 04:56:31;;;;;;;8.43;1.92;;;;;;;5.20;100.00;99079.50;5053325;28;20094;-47
2022/01/04 04:58:57;;;;;;;5.03;1.13;;;;;;;5.20;100.00;99082.94;5051144;28;20028;-52
2022/01/04 05:01:22;;;;;;;5.70;0.15;;;;;;;5.21;100.00;99075.84;5057707;28;20039;-50
2022/01/04 05:03:51;;;;;;;0.73;0.08;;;;;;;5.25;100.00;99067.41;5049451;28;20120;-48
2022/01/04 05:06:17;;;;;;;0.45;0.40;;;;;;;5.27;100.00;99061.97;5065374;28;20040;-51
2022/01/04 05:08:42;;;;;;;0.43;0.43;;;;;;;5.27;100.00;99053.25;5061024;28;20029;-49
2022/01/04 05:11:07;;;;;;;4.88;0.10;;;;;;;5.27;100.00;99048.00;5062834;28;20059;-50
2022/01/04 05:13:33;;;;;;;1.50;1.05;;;;;;;5.29;100.00;99041.53;5051544;28;20035;-50
2022/01/04 05:15:58;;;;;;;4.15;0.22;;;;;;;5.26;100.00;99044.56;5061971;28;20036;-50
2022/01/04 05:18:23;;;;;;;2.33;0.50;;;;;;;5.23;100.00;99037.88;5067275;28;20031;-50
2022/01/04 05:20:49;;;;;;;1.75;0.05;;;;;;;5.21;100.00;99039.06;5064284;28;20071;-51
2022/01/04 05:23:14;;;;;;;0.75;0.43;;;;;;;5.19;100.00;99048.97;5053221;28;20115;-55
2022/01/04 05:25:39;;;;;;;6.43;0.70;;;;;;;5.18;100.00;99047.31;5061049;28;20119;-53
2022/01/04 05:28:05;;;;;;;5.57;1.33;;;;;;;5.22;100.00;99051.22;5058658;28;20078;-50
2022/01/04 05:30:30;;;;;;;3.85;0.30;;;;;;;5.21;100.00;99047.78;5053171;28;20524;-52
2022/01/04 05:32:55;;;;;;;4.15;0.93;;;;;;;5.27;100.00;99050.63;5054675;28;20067;-48
2022/01/04 05:35:21;;;;;;;2.85;0.95;;;;;;;5.29;100.00;99038.91;5059042;28;20120;-53
2022/01/04 05:37:47;;;;;;;4.22;0.22;;;;;;;5.31;100.00;99046.63;5066512;28;20047;-50
2022/01/04 05:40:12;;;;;;;7.13;0.38;;;;;;;5.36;100.00;99050.28;5066798;28;20029;-48
2022/01/04 05:42:37;;;;;;;6.72;0.43;;;;;;;5.39;100.00;99042.00;5065645;28;20113;-51
2022/01/04 05:45:04;;;;;;;2.22;0.55;;;;;;;5.45;100.00;99035.19;5065843;28;20393;-50
2022/01/04 05:47:29;;;;;;;7.68;0.40;;;;;;;5.47;100.00;99034.00;5065609;28;20501;-50
2022/01/04 05:49:54;;;;;;;11.80;1.48;;;;;;;5.46;100.00;99021.84;5050224;28;20585;-51
2022/01/04 05:52:20;;;;;;;4.97;0.32;;;;;;;5.49;100.00;99025.91;5050436;28;20449;-49
2022/01/04 05:54:47;;;;;;;0.65;0.60;;;;;;;5.49;100.00;99019.84;5061675;28;20044;-50
2022/01/04 05:57:13;;;;;;;4.25;1.02;;;;;;;5.47;100.00;99020.03;5066122;28;20043;-50
2022/01/04 05:59:38;;;;;;;1.42;0.10;;;;;;;5.46;100.00;99013.16;5054901;28;20032;-53
2022/01/04 06:02:04;;;;;;;5.43;0.95;;;;;;;5.41;100.00;99016.34;5054912;28;20102;-50
2022/01/04 06:04:29;;;;;;;1.60;0.40;;;;;;;5.35;100.00;99000.56;5062912;28;20032;-53
2022/01/04 06:06:54;;;;;;;3.83;1.52;;;;;;;5.25;100.00;98999.06;5051778;28;20032;-51
2022/01/04 06:09:26;;;;;;;3.92;0.98;;;;;;;5.16;100.00;99004.66;5054973;28;20089;-52
2022/01/04 06:17:00;;;;;;;1.25;1.17;;;;;;;5.05;100.00;99008.63;5063099;28;20105;-51
2022/01/04 06:19:26;;;;;;;5.28;0.75;;;;;;;5.09;100.00;99002.00;5061745;28;20832;-51
2022/01/04 06:21:52;;;;;;;4.72;0.40;;;;;;;5.11;100.00;99007.88;5059475;28;20064;-52
2022/01/04 06:24:17;;;;;;;7.18;0.43;;;;;;;5.15;100.00;99003.84;5057973;28;20533;-52
2022/01/04 06:26:43;;;;;;;1.48;0.43;;;;;;;5.18;100.00;98998.22;5062882;28;20035;-50
2022/01/04 06:29:10;;;;;;;2.05;0.22;;;;;;;5.17;100.00;99001.84;5059520;28;20033;-54
2022/01/04 06:31:36;;;;;;;1.77;0.30;;;;;;;5.11;100.00;99000.00;5064433;28;20094;-53
2022/01/04 06:34:02;;;;;;;2.13;0.55;;;;;;;5.08;100.00;98994.31;5064945;28;20028;-51
2022/01/04 06:36:28;;;;;;;2.47;0.90;;;;;;;5.07;100.00;98990.88;5049891;28;20033;-49
2022/01/04 06:38:53;;;;;;;3.28;0.65;;;;;;;5.09;100.00;98988.88;5053011;28;20469;-51
2022/01/04 06:41:18;;;;;;;2.47;0.22;;;;;;;5.08;100.00;98997.72;5058160;28;20036;-48
2022/01/04 06:43:44;;;;;;;2.15;0.85;;;;;;;4.99;100.00;98988.38;5064000;28;20034;-48
2022/01/04 06:46:11;;;;;;;0.45;0.10;;;;;;;4.92;100.00;98993.59;5055195;28;20035;-49
2022/01/04 06:48:38;;;;;;;3.63;0.20;;;;;;;4.87;100.00;98993.34;5051489;28;20094;-49
2022/01/04 06:51:04;;;;;;;3.50;0.30;;;;;;;4.79;100.00;98993.47;5052995;28;20119;-50
2022/01/04 06:53:29;;;;;;;1.02;0.20;;;;;;;4.75;100.00;99005.34;5058275;28;20147;-54
2022/01/04 06:55:54;;;;;;;1.25;0.95;;;;;;;4.70;100.00;99008.56;5059555;28;20060;-50
2022/01/04 06:58:20;;;;;;;2.15;0.08;;;;;;;4.69;100.00;99014.00;5061722;28;20398;-50
2022/01/04 07:00:45;;;;;;;1.13;0.63;;;;;;;4.68;100.00;99025.50;5058585;28;20055;-49
2022/01/04 07:03:11;;;;;;;11.60;0.30;;;;;;;4.70;100.00;99026.94;5062628;28;20075;-48
2022/01/04 07:05:36;;;;;;;1.33;1.00;;;;;;;4.71;100.00;99030.38;5060594;28;20047;-49
2022/01/04 07:08:02;;;;;;;2.20;0.85;;;;;;;4.73;100.00;99036.25;5065933;28;20462;-49
2022/01/04 07:10:28;;;;;;;0.50;0.50;;;;;;;4.73;100.00;99044.16;5059282;28;20469;-52
2022/01/04 07:12:53;;;;;;;1.30;0.40;;;;;;;4.73;100.00;99038.88;5056341;28;20043;-49
2022/01/04 07:15:19;;;;;;;0.52;0.30;;;;;;;4.74;100.00;99033.44;5049071;28;20029;-51
2022/01/04 07:17:44;;;;;;;0.60;0.08;;;;;;;4.77;100.00;99034.88;5064228;28;20036;-53
2022/01/04 07:20:10;;;;;;;1.95;1.15;;;;;;;4.78;100.00;99032.06;5059686;28;20032;-52
2022/01/04 07:22:36;;;;;;;1.10;0.20;;;;;;;4.80;100.00;99026.59;5054961;28;20355;-51
2022/01/04 07:25:03;;;;;;;0.32;0.10;;;;;;;4.80;100.00;99024.81;5063926;28;20097;-51
2022/01/04 07:27:28;;;;;;;2.05;0.30;;;;;;;4.80;100.00;99023.97;5054710;28;20033;-53
2022/01/04 07:29:53;;;;;;;4.05;0.35;;;;;;;4.79;100.00;99023.19;5062509;28;20518;-51
2022/01/04 07:32:19;;;;;;;0.75;0.10;;;;;;;4.77;100.00;99032.25;5058880;28;20100;-53
2022/01/04 07:34:44;;;;;;;1.38;1.25;;;;;;;4.72;100.00;99026.75;5060374;28;20540;-48
2022/01/04 07:37:09;;;;;;;2.05;0.47;;;;;;;4.69;100.00;99021.88;5053835;28;20032;-52
2022/01/04 07:39:35;;;;;;;1.00;0.00;;;;;;;4.65;100.00;99021.44;5063602;28;20032;-50
2022/01/04 07:42:02;;;;;;;3.88;0.55;;;;;;;4.57;100.00;99016.34;5056508;28;20029;-53
2022/01/04 07:44:27;;;;;;;5.43;0.30;;;;;;;4.53;100.00;99021.13;5063394;28;20053;-54
2022/01/04 07:46:53;;;;;;;1.10;0.52;;;;;;;4.53;100.00;99021.13;5059901;28;20056;-49
2022/01/04 07:49:19;;;;;;;1.63;0.35;;;;;;;4.54;100.00;99025.41;5060093;28;20055;-48
2022/01/04 07:51:44;;;;;;;6.68;0.77;;;;;;;4.52;100.00;99030.00;5056790;28;20470;-53
2022/01/04 07:54:10;;;;;;;2.50;0.30;;;;;;;4.52;100.00;99037.88;5049236;28;20037;-51
2022/01/04 07:56:35;;;;;;;2.75;0.32;;;;;;;4.52;100.00;99039.72;5061396;28;20039;-50
2022/01/04 07:59:01;;;;;;;1.55;0.20;;;;;;;4.55;100.00;99045.38;5056062;28;20547;-48
2022/01/04 08:01:30;;;;;;;6.32;1.25;;;;;;;4.62;100.00;99055.97;5058487;28;20466;-52
2022/01/04 08:03:55;;;;;;;3.03;1.35;;;;;;;4.64;100.00;99050.50;5055975;28;20398;-52
2022/01/04 08:06:21;;;;;;;2.47;1.23;;;;;;;4.69;100.00;99051.56;5058301;28;20032;-47
2022/01/04 08:08:46;;;;;;;0.73;0.60;;;;;;;4.72;100.00;99056.44;5048797;28;20425;-50
2022/01/04 08:11:12;;;;;;;0.45;0.30;;;;;;;4.77;100.00;99059.31;5057472;28;20881;-48
2022/01/04 08:13:37;;;;;;;2.28;0.93;;;;;;;4.80;100.00;99069.47;5062503;28;20557;-48
2022/01/04 08:16:03;;;;;;;5.22;0.52;;;;;;;4.81;100.00;99075.53;5053186;28;20044;-51
2022/01/04 08:18:28;;;;;;;2.78;0.68;;;;;;;4.90;100.00;99069.13;5061831;28;20032;-51
2022/01/04 08:20:57;;;;;;;4.53;0.52;;;;;;;4.99;100.00;99075.06;5063196;28;20028;-51
2022/01/04 08:23:24;;;;;;;0.77;0.10;;;;;;;5.05;100.00;99071.69;5062619;28;20063;-52
2022/01/04 08:25:50;;;;;;;4.10;0.88;;;;;;;5.10;100.00;99079.81;5061471;28;20036;-55
2022/01/04 08:28:15;;;;;;;1.65;0.45;;;;;;;5.14;100.00;99078.44;5059112;28;20401;-48
2022/01/04 08:30:42;;;;;;;9.82;2.13;;;;;;;5.20;100.00;99084.75;5062026;28;20508;-50
2022/01/04 08:33:09;;;;;;;2.28;0.68;;;;;;;5.24;100.00;99089.44;5065703;28;20021;-52
2022/01/04 08:35:34;;;;;;;2.67;0.30;;;;;;;5.36;100.00;99096.78;5065631;28;20053;-53
2022/01/04 08:37:59;;;;;;;4.55;0.32;;;;;;;5.37;100.00;99099.25;5068644;28;20040;-50
2022/01/04 08:40:25;;;;;;;1.30;0.03;;;;;;;5.35;100.00;99103.88;5056020;28;20389;-51
2022/01/04 08:42:50;;;;;;;1.08;0.22;;;;;;;5.23;100.00;99121.16;5067512;28;20402;-53
2022/01/04 08:45:17;;;;;;;0.93;0.00;;;;;;;5.01;100.00;99128.25;5063383;28;20165;-52
2022/01/04 08:47:43;;;;;;;1.02;0.00;;;;;;;4.71;100.00;99130.97;5061017;28;20215;-50
2022/01/04 08:50:10;;;;;;;0.00;0.00;;;;;;;4.44;100.00;99135.13;5053861;28;20025;-52
2022/01/04 08:52:36;;;;;;;0.22;0.00;;;;;;;4.30;100.00;99146.44;5064577;28;20112;-51
2022/01/04 08:55:01;;;;;;;1.10;0.00;;;;;;;4.15;100.00;99144.63;5064052;28;20108;-51
2022/01/04 08:57:26;;;;;;;0.57;0.20;;;;;;;4.00;100.00;99156.97;5054321;28;20055;-50
2022/01/04 08:59:54;;;;;;;0.00;0.00;;;;;;;3.86;100.00;99160.38;5059894;28;20029;-52
2022/01/04 09:02:21;;;;;;;0.00;0.00;;;;;;;3.70;100.00;99156.94;5067700;28;20112;-51
2022/01/04 09:04:47;;;;;;;0.00;0.00;;;;;;;3.61;100.00;99173.72;5062617;28;20048;-50
2022/01/04 09:07:13;;;;;;;0.00;0.00;;;;;;;3.52;100.00;99171.38;5056760;28;20119;-48
2022/01/04 09:09:39;;;;;;;0.00;0.00;;;;;;;3.37;100.00;99177.38;5062324;28;20085;-53
2022/01/04 09:12:04;;;;;;;0.55;0.00;;;;;;;3.25;100.00;99187.47;5058545;28;20029;-54
2022/01/04 09:14:42;;;;;;;0.43;0.00;;;;;;;3.16;100.00;99185.88;5050506;28;20025;-51
2022/01/04 09:19:55;;;;;;;0.00;0.00;;;;;;;2.92;100.00;99194.72;5060351;28;20134;-51
2022/01/04 09:22:20;;;;;;;0.00;0.00;;;;;;;2.91;100.00;99200.94;5064183;28;20459;-51
2022/01/04 09:24:46;;;;;;;0.10;0.10;;;;;;;2.92;100.00;99196.50;5058615;28;20043;-49
2022/01/04 09:27:11;;;;;;;0.00;0.00;;;;;;;2.83;100.00;99196.56;5066326;28;20033;-54
2022/01/04 09:29:37;;;;;;;0.00;0.00;;;;;;;2.81;100.00;99211.63;5064656;28;21356;-53
2022/01/04 09:32:04;;;;;;;0.00;0.00;;;;;;;2.78;100.00;99213.75;5061415;28;20029;-50
2022/01/04 09:34:29;;;;;;;0.38;0.38;;;;;;;2.78;100.00;99216.38;5056118;28;20068;-49
2022/01/04 09:36:55;;;;;;;0.00;0.00;;;;;;;2.73;100.00;99214.28;5064018;28;20059;-53
2022/01/04 09:39:22;;;;;;;0.00;0.00;;;;;;;2.58;100.00;99221.22;5053724;28;20032;-52
2022/01/04 09:41:48;;;;;;;0.00;0.00;;;;;;;2.45;100.00;99213.91;5047656;28;20047;-56
2022/01/04 09:44:15;;;;;;;0.00;0.00;;;;;;;2.42;100.00;99219.47;5061205;28;20067;-53
2022/01/04 09:46:41;;;;;;;0.00;0.00;;;;;;;2.39;100.00;99233.72;5056596;28;20036;-51
2022/01/04 09:49:09;;;;;;;0.00;0.00;;;;;;;2.30;100.00;99239.97;5066384;28;20077;-51
2022/01/04 09:51:37;;;;;;;0.00;0.00;;;;;;;2.36;100.00;99241.91;5059237;28;20090;-53
2022/01/04 09:54:03;;;;;;;0.00;0.00;;;;;;;2.27;100.00;99253.38;5052761;28;20513;-49
2022/01/04 09:56:28;;;;;;;0.00;0.00;;;;;;;2.27;100.00;99258.63;5055929;28;20032;-52
2022/01/04 09:58:53;;;;;;;0.70;0.00;;;;;;;2.22;100.00;99276.63;5049893;28;20045;-53
2022/01/04 10:01:27;;;;;;;0.00;0.00;;;;;;;2.27;100.00;99274.31;5052176;28;20060;-52
2022/01/04 10:03:52;;;;;;;0.13;0.00;;;;;;;2.22;100.00;99278.38;5064599;28;20040;-50
2022/01/04 10:06:18;;;;;;;0.25;0.00;;;;;;;2.20;100.00;99288.22;5064320;28;20041;-49
2022/01/04 10:09:03;;;;;;;0.00;0.00;;;;;;;2.18;100.00;99297.03;5063100;28;20033;-50
2022/01/04 10:11:42;;;;;;;0.43;0.00;;;;;;;2.15;100.00;99304.41;5058106;28;20037;-48
2022/01/04 10:14:24;;;;;;;0.30;0.25;;;;;;;2.07;100.00;99314.88;5056417;28;20511;-49
2022/01/04 10:16:51;;;;;;;0.03;0.00;;;;;;;2.03;100.00;99305.72;5061965;28;20089;-52
2022/01/04 10:19:33;;;;;;;0.00;0.00;;;;;;;1.93;100.00;99319.75;5048165;28;20041;-53
2022/01/04 10:22:17;;;;;;;0.00;0.00;;;;;;;1.93;100.00;99321.56;5060212;28;20032;-53
2022/01/04 10:24:45;;;;;;;0.00;0.00;;;;;;;1.98;100.00;99328.91;5056813;28;20103;-51
2022/01/04 10:27:29;;;;;;;0.00;0.00;;;;;;;2.02;100.00;99331.06;5058491;28;20043;-50
2022/01/04 10:30:10;;;;;;;0.32;0.00;;;;;;;1.92;100.00;99339.03;5056912;28;20033;-55
2022/01/04 10:32:45;;;;;;;0.15;0.00;;;;;;;1.88;100.00;99342.97;5056350;28;21035;-52
2022/01/04 10:35:11;;;;;;;0.90;0.08;;;;;;;1.90;100.00;99346.22;5055372;28;20040;-53
2022/01/04 10:37:39;;;;;;;0.00;0.00;;;;;;;1.92;100.00;99352.13;5057267;28;20063;-51
2022/01/04 10:40:06;;;;;;;0.75;0.00;;;;;;;1.92;100.00;99354.72;5061478;28;20083;-52
2022/01/04 10:42:32;;;;;;;0.25;0.00;;;;;;;1.88;100.00;99350.78;5058799;28;20139;-49
2022/01/04 10:44:57;;;;;;;0.00;0.00;;;;;;;1.88;100.00;99369.09;5055139;28;20044;-53
2022/01/04 10:47:30;;;;;;;0.40;0.10;;;;;;;1.86;100.00;99360.63;5052383;28;20032;-49
2022/01/04 10:49:56;;;;;;;0.85;0.10;;;;;;;1.84;100.00;99352.13;5055956;28;20036;-51
2022/01/04 10:52:31;;;;;;;0.35;0.20;;;;;;;1.81;100.00;99378.59;5046864;28;20033;-49
2022/01/04 10:55:13;;;;;;;0.20;0.20;;;;;;;1.79;100.00;99380.53;5047472;28;20348;-49
2022/01/04 10:57:38;;;;;;;0.10;0.10;;;;;;;1.71;100.00;99380.53;5054397;28;20031;-53
2022/01/04 11:00:22;;;;;;;1.58;0.17;;;;;;;1.64;100.00;99389.97;5059632;28;20379;-49
2022/01/04 11:02:48;;;;;;;0.45;0.20;;;;;;;1.60;100.00;99392.09;5054042;28;20059;-53
2022/01/04 11:05:15;;;;;;;0.40;0.10;;;;;;;1.61;100.00;99398.16;5060837;28;20028;-49
2022/01/04 11:08:04;;;;;;;0.90;0.38;;;;;;;1.59;100.00;99400.91;5059282;28;20103;-52
2022/01/04 11:10:35;;;;;;;2.20;0.17;;;;;;;1.52;100.00;99405.97;5057835;28;20056;-50
2022/01/04 11:13:01;;;;;;;0.45;0.20;;;;;;;1.59;100.00;99405.31;5051180;28;20585;-49
2022/01/04 11:15:27;;;;;;;0.30;0.20;;;;;;;1.63;100.00;99407.47;5054697;28;20465;-54
2022/01/04 11:17:53;;;;;;;1.13;0.50;;;;;;;1.65;100.00;99399.44;5057248;28;20043;-49
2022/01/04 11:20:20;;;;;;;0.95;0.10;;;;;;;1.68;100.00;99404.38;5060951;28;20028;-50
2022/01/04 11:22:48;;;;;;;0.20;0.13;;;;;;;1.73;100.00;99394.25;5051566;28;20038;-51
2022/01/04 11:25:16;;;;;;;0.15;0.05;;;;;;;1.71;100.00;99399.63;5059247;28;20035;-49
2022/01/04 11:27:42;;;;;;;2.70;0.20;;;;;;;1.71;100.00;99406.66;5060885;28;20029;-50
2022/01/04 11:30:29;;;;;;;0.40;0.10;;;;;;;1.72;100.00;99390.81;5055757;28;20033;-50
2022/01/04 11:33:02;;;;;;;0.20;0.00;;;;;;;1.75;100.00;99400.94;5057669;28;20036;-53
2022/01/04 11:35:29;;;;;;;3.40;0.10;;;;;;;1.77;100.00;99406.00;5056680;28;20387;-50
2022/01/04 11:37:57;;;;;;;0.20;0.15;;;;;;;1.77;100.00;99402.59;5056377;28;20677;-50
2022/01/04 11:40:35;;;;;;;0.73;0.10;;;;;;;1.81;100.00;99404.72;5052424;28;20028;-51